Time;durP1;ratioP1;P1;durP2;ratioP2;P2;SDS_P1;SDS_P2;PMS_P1;PMS_P2;Temp;Humidity;BMP_temperature;BMP_pressure;BME280_temperature;BME280_humidity;BME280_pressure;Samples;Min_cycle;Max_cycle;Signal;HPM_P1;HPM_P2
2023/09/05 00:00:39;;;;;;;5.63;2.83;;;;;;;;;;4963203;28;20059;-80
2023/09/05 00:03:04;;;;;;;4.28;2.80;;;;;;;;;;4967749;28;20118;-80
2023/09/05 00:05:32;;;;;;;8.13;3.00;;;;;;;;;;4968750;28;20382;-80
2023/09/05 00:07:57;;;;;;;5.57;3.10;;;;;;;;;;4963459;28;20039;-80
2023/09/05 00:10:23;;;;;;;5.82;3.50;;;;;;;;;;4965993;28;20034;-79
2023/09/05 00:12:51;;;;;;;5.22;3.20;;;;;;;;;;4966909;28;20037;-80
2023/09/05 00:15:16;;;;;;;4.90;2.90;;;;;;;;;;4966074;28;20109;-80
2023/09/05 00:17:42;;;;;;;4.13;2.85;;;;;;;;;;4965556;28;20031;-80
2023/09/05 00:20:07;;;;;;;4.68;3.03;;;;;;;;;;4966366;28;20034;-80
2023/09/05 00:22:33;;;;;;;5.35;3.20;;;;;;;;;;4963962;28;20035;-79
2023/09/05 00:24:58;;;;;;;5.20;3.58;;;;;;;;;;4965608;28;20039;-80
2023/09/05 00:27:23;;;;;;;6.05;3.15;;;;;;;;;;4967747;28;20042;-80
2023/09/05 00:29:49;;;;;;;6.55;3.35;;;;;;;;;;4964933;28;20031;-80
2023/09/05 00:32:14;;;;;;;6.57;3.17;;;;;;;;;;4956826;28;20034;-80
2023/09/05 00:34:39;;;;;;;5.25;3.38;;;;;;;;;;4956382;28;20490;-80
2023/09/05 00:37:06;;;;;;;5.90;3.38;;;;;;;;;;4964865;28;20115;-79
2023/09/05 00:39:31;;;;;;;5.35;3.47;;;;;;;;;;4964559;28;20126;-80
2023/09/05 00:41:56;;;;;;;5.00;3.35;;;;;;;;;;4964828;28;20562;-80
2023/09/05 00:44:22;;;;;;;5.55;3.50;;;;;;;;;;4964831;28;20039;-80
2023/09/05 00:46:47;;;;;;;8.25;4.13;;;;;;;;;;4964341;28;20039;-79
2023/09/05 00:49:15;;;;;;;5.63;3.88;;;;;;;;;;4965302;28;20031;-80
2023/09/05 00:51:42;;;;;;;6.72;3.67;;;;;;;;;;4970162;28;20030;-80
2023/09/05 00:54:08;;;;;;;4.72;3.05;;;;;;;;;;4967863;28;20055;-80
2023/09/05 00:56:35;;;;;;;4.95;3.50;;;;;;;;;;4970275;28;20035;-80
2023/09/05 00:59:00;;;;;;;5.20;3.60;;;;;;;;;;4967924;28;20636;-79
2023/09/05 01:01:26;;;;;;;6.47;4.30;;;;;;;;;;4970047;28;20035;-79
2023/09/05 01:03:54;;;;;;;6.80;3.58;;;;;;;;;;4958942;28;20031;-80
2023/09/05 01:06:22;;;;;;;5.88;4.40;;;;;;;;;;4973384;28;20089;-80
2023/09/05 01:08:55;;;;;;;6.82;4.43;;;;;;;;;;4973377;28;20069;-78
2023/09/05 01:11:21;;;;;;;6.30;3.75;;;;;;;;;;4969047;28;20046;-80
2023/09/05 01:13:46;;;;;;;5.50;3.67;;;;;;;;;;4968726;28;20549;-80
2023/09/05 01:16:12;;;;;;;6.70;3.97;;;;;;;;;;4971874;28;20067;-79
2023/09/05 01:18:40;;;;;;;5.53;4.22;;;;;;;;;;4968115;28;20098;-80
2023/09/05 01:21:24;;;;;;;5.97;3.72;;;;;;;;;;4969295;28;20081;-80
2023/09/05 01:23:55;;;;;;;5.28;3.67;;;;;;;;;;4976432;28;20023;-79
2023/09/05 01:26:20;;;;;;;7.30;3.90;;;;;;;;;;4968198;28;20045;-79
2023/09/05 01:28:46;;;;;;;5.75;3.38;;;;;;;;;;4967557;28;20035;-80
2023/09/05 01:31:12;;;;;;;5.57;3.90;;;;;;;;;;4967494;28;20059;-80
2023/09/05 01:33:38;;;;;;;5.18;4.00;;;;;;;;;;4968101;28;20034;-80
2023/09/05 01:36:05;;;;;;;5.53;3.85;;;;;;;;;;4971367;28;20555;-79
2023/09/05 01:38:30;;;;;;;5.28;3.75;;;;;;;;;;4967204;28;20128;-80
2023/09/05 01:40:55;;;;;;;6.60;3.78;;;;;;;;;;4970530;28;20019;-80
2023/09/05 01:43:21;;;;;;;4.65;3.70;;;;;;;;;;4968244;28;20046;-80
2023/09/05 01:45:46;;;;;;;7.20;3.80;;;;;;;;;;4968163;28;20039;-79
2023/09/05 01:48:12;;;;;;;8.15;3.95;;;;;;;;;;4968967;28;20030;-80
2023/09/05 01:50:37;;;;;;;5.63;3.70;;;;;;;;;;4966131;28;20114;-79
2023/09/05 01:53:02;;;;;;;5.63;3.38;;;;;;;;;;4969526;28;20074;-80
2023/09/05 01:55:27;;;;;;;7.95;3.60;;;;;;;;;;4966231;28;20438;-80
2023/09/05 01:57:53;;;;;;;6.68;3.88;;;;;;;;;;4968527;28;20077;-79
2023/09/05 02:00:18;;;;;;;5.18;3.45;;;;;;;;;;4970084;28;20038;-80
2023/09/05 02:02:43;;;;;;;5.65;3.50;;;;;;;;;;4976004;28;20093;-79
2023/09/05 02:05:08;;;;;;;5.03;3.10;;;;;;;;;;4966157;28;20075;-80
2023/09/05 02:07:34;;;;;;;5.55;3.63;;;;;;;;;;4970586;28;20035;-80
2023/09/05 02:09:59;;;;;;;8.55;3.83;;;;;;;;;;4965176;28;20042;-80
2023/09/05 02:12:24;;;;;;;4.88;3.45;;;;;;;;;;4970063;28;20370;-80
2023/09/05 02:14:49;;;;;;;5.30;3.22;;;;;;;;;;4965467;28;20454;-80
2023/09/05 02:17:18;;;;;;;5.63;3.35;;;;;;;;;;4972032;28;20042;-79
2023/09/05 02:22:24;;;;;;;5.82;3.35;;;;;;;;;;5074172;23;20050;-80
2023/09/05 02:24:50;;;;;;;5.13;3.17;;;;;;;;;;4939108;28;20388;-80
2023/09/05 02:27:15;;;;;;;7.30;3.40;;;;;;;;;;4933153;28;20039;-80
2023/09/05 02:29:40;;;;;;;5.50;3.38;;;;;;;;;;4928499;29;20031;-80
2023/09/05 02:32:05;;;;;;;5.83;3.00;;;;;;;;;;4926033;29;20036;-80
2023/09/05 02:34:30;;;;;;;7.57;4.00;;;;;;;;;;4927265;29;20291;-80
2023/09/05 02:36:57;;;;;;;5.33;3.50;;;;;;;;;;4933520;29;20284;-80
2023/09/05 02:39:22;;;;;;;8.95;3.67;;;;;;;;;;4922263;29;20281;-80
2023/09/05 02:41:48;;;;;;;7.20;3.42;;;;;;;;;;4910518;29;20035;-79
2023/09/05 02:44:13;;;;;;;5.80;3.60;;;;;;;;;;4913270;29;20031;-80
2023/09/05 02:46:39;;;;;;;4.87;3.20;;;;;;;;;;4940750;29;20044;-80
2023/09/05 02:49:04;;;;;;;5.95;3.83;;;;;;;;;;4938068;29;20292;-81
2023/09/05 02:51:30;;;;;;;4.47;2.55;;;;;;;;;;4937612;29;20024;-80
2023/09/05 02:53:56;;;;;;;7.30;3.43;;;;;;;;;;4912973;29;20032;-80
2023/09/05 02:56:22;;;;;;;4.88;2.90;;;;;;;;;;4919814;29;20288;-80
2023/09/05 02:58:47;;;;;;;6.45;3.00;;;;;;;;;;4931682;29;20075;-81
2023/09/05 03:01:13;;;;;;;7.78;3.78;;;;;;;;;;4940200;29;20028;-81
2023/09/05 03:03:38;;;;;;;7.65;4.00;;;;;;;;;;4922820;29;20036;-80
2023/09/05 03:06:07;;;;;;;7.00;3.67;;;;;;;;;;4919527;29;20036;-79
2023/09/05 03:08:34;;;;;;;6.43;3.78;;;;;;;;;;4928629;29;20111;-80
2023/09/05 03:11:02;;;;;;;6.57;3.80;;;;;;;;;;4910539;29;20032;-80
2023/09/05 03:13:27;;;;;;;6.68;4.63;;;;;;;;;;4942232;29;20024;-80
2023/09/05 03:15:52;;;;;;;5.65;3.97;;;;;;;;;;4936599;29;20024;-81
2023/09/05 03:18:19;;;;;;;5.20;3.35;;;;;;;;;;4932381;29;20039;-81
2023/09/05 03:20:44;;;;;;;6.15;3.47;;;;;;;;;;4914679;29;20310;-80
2023/09/05 03:23:11;;;;;;;7.40;4.63;;;;;;;;;;4912846;29;20033;-79
2023/09/05 03:25:37;;;;;;;5.38;4.07;;;;;;;;;;4914793;29;20024;-80
2023/09/05 03:31:31;;;;;;;4.90;3.20;;;;;;;;;;4921201;29;20012;-80
2023/09/05 03:33:57;;;;;;;11.57;3.78;;;;;;;;;;4932967;29;20071;-80
2023/09/05 03:36:26;;;;;;;6.30;3.25;;;;;;;;;;4913945;29;20035;-81
2023/09/05 03:38:52;;;;;;;6.43;3.67;;;;;;;;;;4908159;29;20051;-81
2023/09/05 03:41:17;;;;;;;9.60;4.15;;;;;;;;;;4942042;29;20035;-80
2023/09/05 03:43:42;;;;;;;5.03;3.17;;;;;;;;;;4937060;29;20084;-80
2023/09/05 03:46:07;;;;;;;4.90;3.13;;;;;;;;;;4919561;29;20013;-81
2023/09/05 03:48:32;;;;;;;4.70;3.00;;;;;;;;;;4918125;29;20287;-81
2023/09/05 03:50:58;;;;;;;4.20;2.75;;;;;;;;;;4915550;29;20064;-81
2023/09/05 03:53:23;;;;;;;6.40;2.90;;;;;;;;;;4930888;29;20055;-81
2023/09/05 03:55:48;;;;;;;5.22;3.40;;;;;;;;;;4918146;29;20287;-81
2023/09/05 03:58:13;;;;;;;7.15;3.83;;;;;;;;;;4923820;29;20032;-81
2023/09/05 04:00:38;;;;;;;5.32;3.40;;;;;;;;;;4925798;29;20036;-80
2023/09/05 04:03:04;;;;;;;6.22;4.18;;;;;;;;;;4923309;29;20029;-81
2023/09/05 04:05:29;;;;;;;6.90;3.50;;;;;;;;;;4926564;29;20035;-80
2023/09/05 04:07:54;;;;;;;5.45;4.22;;;;;;;;;;4923826;29;20048;-80
2023/09/05 04:10:20;;;;;;;7.30;3.75;;;;;;;;;;4927023;29;20040;-81
2023/09/05 04:12:45;;;;;;;4.60;3.10;;;;;;;;;;4922065;29;20021;-81
2023/09/05 04:15:10;;;;;;;4.97;2.92;;;;;;;;;;4923494;29;20056;-80
2023/09/05 04:17:37;;;;;;;4.55;2.60;;;;;;;;;;4909800;29;20031;-81
2023/09/05 04:20:07;;;;;;;6.13;3.95;;;;;;;;;;4907846;29;20040;-81
2023/09/05 04:22:32;;;;;;;10.15;4.78;;;;;;;;;;4910470;29;20064;-81
2023/09/05 04:24:57;;;;;;;6.38;3.90;;;;;;;;;;4908536;29;20036;-80
2023/09/05 04:27:23;;;;;;;7.25;3.83;;;;;;;;;;4924145;29;20032;-81
2023/09/05 04:29:51;;;;;;;6.03;3.67;;;;;;;;;;4908676;29;20456;-80
2023/09/05 04:32:17;;;;;;;4.60;3.05;;;;;;;;;;4923442;29;20016;-80
2023/09/05 04:34:43;;;;;;;5.47;3.13;;;;;;;;;;4926128;29;20044;-81
2023/09/05 04:37:08;;;;;;;4.53;2.57;;;;;;;;;;4909126;29;20040;-80
2023/09/05 04:39:34;;;;;;;5.85;2.97;;;;;;;;;;4923273;29;20281;-80
2023/09/05 04:42:00;;;;;;;4.95;3.10;;;;;;;;;;4909253;29;20693;-80
2023/09/05 04:44:27;;;;;;;6.10;3.10;;;;;;;;;;4910554;29;20051;-80
2023/09/05 04:46:52;;;;;;;5.93;2.88;;;;;;;;;;4909875;29;20347;-80
2023/09/05 04:49:17;;;;;;;4.65;3.10;;;;;;;;;;4922486;29;20036;-80
2023/09/05 04:51:42;;;;;;;5.53;3.28;;;;;;;;;;4925635;29;20050;-80
2023/09/05 04:54:08;;;;;;;5.23;3.50;;;;;;;;;;4924599;29;20033;-80
2023/09/05 04:56:33;;;;;;;7.10;3.38;;;;;;;;;;4925067;29;20315;-80
2023/09/05 04:58:58;;;;;;;6.70;4.07;;;;;;;;;;4925693;29;20401;-80
2023/09/05 05:01:23;;;;;;;4.87;2.80;;;;;;;;;;4925840;29;20339;-80
2023/09/05 05:03:49;;;;;;;5.38;3.20;;;;;;;;;;4922426;29;20276;-80
2023/09/05 05:06:14;;;;;;;5.53;2.72;;;;;;;;;;4925160;29;20035;-81
2023/09/05 05:08:39;;;;;;;4.55;3.15;;;;;;;;;;4926095;29;20028;-80
2023/09/05 05:11:07;;;;;;;5.53;3.95;;;;;;;;;;4921947;29;20036;-81
2023/09/05 05:13:33;;;;;;;6.00;4.38;;;;;;;;;;4912680;29;20184;-80
2023/09/05 05:15:58;;;;;;;6.15;4.40;;;;;;;;;;4908846;29;20036;-80
2023/09/05 05:18:24;;;;;;;6.78;3.88;;;;;;;;;;4925668;29;20092;-80
2023/09/05 05:20:49;;;;;;;5.60;3.83;;;;;;;;;;4905956;29;20033;-81
2023/09/05 05:23:14;;;;;;;4.83;2.90;;;;;;;;;;4924505;29;20284;-80
2023/09/05 05:25:39;;;;;;;6.27;3.40;;;;;;;;;;4925050;29;20353;-80
2023/09/05 05:28:05;;;;;;;5.43;3.40;;;;;;;;;;4924770;29;20304;-79
2023/09/05 05:30:33;;;;;;;7.85;4.35;;;;;;;;;;4921142;29;20035;-80
2023/09/05 05:32:59;;;;;;;8.88;4.50;;;;;;;;;;4922988;29;20043;-80
2023/09/05 05:35:24;;;;;;;6.93;4.30;;;;;;;;;;4925992;29;20080;-81
2023/09/05 05:37:49;;;;;;;5.17;3.50;;;;;;;;;;4927404;29;20265;-81
2023/09/05 05:40:14;;;;;;;4.47;2.93;;;;;;;;;;4930291;29;20290;-80
2023/09/05 05:42:39;;;;;;;5.90;3.40;;;;;;;;;;4926283;29;20285;-80
2023/09/05 05:45:05;;;;;;;5.75;3.63;;;;;;;;;;4927163;29;20291;-82
2023/09/05 05:47:31;;;;;;;7.18;3.60;;;;;;;;;;4929719;29;20040;-81
2023/09/05 05:49:56;;;;;;;4.75;3.00;;;;;;;;;;4911923;29;20024;-81
2023/09/05 05:52:21;;;;;;;6.70;2.63;;;;;;;;;;4926262;29;20088;-80
2023/09/05 05:54:47;;;;;;;6.30;2.77;;;;;;;;;;4926977;29;20059;-81
2023/09/05 05:57:12;;;;;;;7.20;3.10;;;;;;;;;;4927016;29;20304;-81
2023/09/05 05:59:37;;;;;;;5.70;2.88;;;;;;;;;;4925818;29;20032;-81
2023/09/05 06:02:04;;;;;;;4.47;2.90;;;;;;;;;;4930462;29;20056;-81
2023/09/05 06:04:29;;;;;;;4.00;2.78;;;;;;;;;;4926317;29;20281;-81
2023/09/05 06:06:54;;;;;;;5.83;2.90;;;;;;;;;;4925531;29;20028;-80
2023/09/05 06:09:19;;;;;;;5.40;3.10;;;;;;;;;;4927701;29;20281;-81
2023/09/05 06:11:45;;;;;;;5.95;3.33;;;;;;;;;;4926208;29;20283;-80
2023/09/05 06:14:10;;;;;;;6.50;4.38;;;;;;;;;;4927643;29;20029;-81
2023/09/05 06:16:36;;;;;;;5.43;3.40;;;;;;;;;;4908948;29;20016;-80
2023/09/05 06:19:01;;;;;;;5.25;3.40;;;;;;;;;;4925938;29;20064;-80
2023/09/05 06:21:26;;;;;;;6.80;3.40;;;;;;;;;;4926144;29;20051;-81
2023/09/05 06:23:52;;;;;;;6.10;4.53;;;;;;;;;;4925381;29;20296;-80
2023/09/05 06:26:17;;;;;;;5.97;4.03;;;;;;;;;;4927022;29;20296;-81
2023/09/05 06:28:42;;;;;;;5.32;3.63;;;;;;;;;;4925831;29;20624;-81
2023/09/05 06:31:07;;;;;;;5.60;3.43;;;;;;;;;;4924327;29;20039;-81
2023/09/05 06:33:33;;;;;;;3.97;2.20;;;;;;;;;;4928743;29;20284;-80
2023/09/05 06:36:03;;;;;;;3.92;2.45;;;;;;;;;;4924985;29;20657;-81
2023/09/05 06:38:29;;;;;;;4.97;2.85;;;;;;;;;;4926870;29;20601;-80
2023/09/05 06:40:54;;;;;;;6.80;3.93;;;;;;;;;;4922234;29;20037;-81
2023/09/05 06:43:19;;;;;;;4.90;3.20;;;;;;;;;;4914307;29;20265;-81
2023/09/05 06:45:44;;;;;;;4.70;2.60;;;;;;;;;;4924689;29;20029;-81
2023/09/05 06:48:09;;;;;;;4.22;2.85;;;;;;;;;;4926357;29;20347;-81
2023/09/05 06:50:35;;;;;;;5.50;3.60;;;;;;;;;;4927127;29;20024;-81
2023/09/05 06:53:00;;;;;;;5.17;2.90;;;;;;;;;;4911281;29;20060;-80
2023/09/05 06:55:28;;;;;;;4.63;2.60;;;;;;;;;;4923643;29;20359;-81
2023/09/05 06:57:53;;;;;;;8.27;4.07;;;;;;;;;;4926582;29;20280;-80
2023/09/05 07:00:22;;;;;;;7.73;4.50;;;;;;;;;;4907821;29;20204;-81
2023/09/05 07:02:49;;;;;;;6.78;3.30;;;;;;;;;;4926995;29;20273;-80
2023/09/05 07:05:14;;;;;;;5.88;2.78;;;;;;;;;;4927503;29;20037;-81
2023/09/05 07:07:40;;;;;;;4.07;2.53;;;;;;;;;;4908434;29;20061;-81
2023/09/05 07:10:05;;;;;;;5.70;3.60;;;;;;;;;;4908754;29;20032;-81
2023/09/05 07:12:31;;;;;;;6.82;3.58;;;;;;;;;;4927294;29;20178;-80
2023/09/05 07:14:56;;;;;;;6.00;4.57;;;;;;;;;;4910383;29;20035;-81
2023/09/05 07:17:21;;;;;;;7.65;5.10;;;;;;;;;;4925361;29;20277;-81
2023/09/05 07:19:46;;;;;;;6.30;4.20;;;;;;;;;;4908434;29;20039;-81
2023/09/05 07:22:12;;;;;;;6.55;5.03;;;;;;;;;;4924977;29;20374;-81
2023/09/05 07:24:37;;;;;;;5.33;4.00;;;;;;;;;;4926503;29;20047;-80
2023/09/05 07:27:03;;;;;;;7.07;4.90;;;;;;;;;;4925236;29;20296;-80
2023/09/05 07:29:30;;;;;;;5.82;4.88;;;;;;;;;;4911836;29;20134;-81
2023/09/05 07:31:56;;;;;;;6.53;4.38;;;;;;;;;;4908711;29;20036;-81
2023/09/05 07:34:21;;;;;;;6.47;4.30;;;;;;;;;;4923625;29;20055;-80
2023/09/05 07:36:47;;;;;;;6.57;3.10;;;;;;;;;;4921439;29;20276;-81
2023/09/05 07:39:12;;;;;;;6.80;2.58;;;;;;;;;;4924396;29;20311;-81
2023/09/05 07:41:38;;;;;;;5.32;3.72;;;;;;;;;;4910928;29;20059;-81
2023/09/05 07:44:04;;;;;;;5.32;3.75;;;;;;;;;;4922306;29;20039;-81
2023/09/05 07:46:29;;;;;;;7.55;3.60;;;;;;;;;;4925561;29;20028;-81
2023/09/05 07:48:54;;;;;;;4.53;2.67;;;;;;;;;;4929100;29;20052;-81
2023/09/05 07:51:22;;;;;;;5.53;2.55;;;;;;;;;;4928592;29;20028;-80
2023/09/05 07:53:50;;;;;;;4.10;2.20;;;;;;;;;;4922674;29;20025;-81
2023/09/05 07:56:15;;;;;;;3.60;2.28;;;;;;;;;;4923086;29;20043;-81
2023/09/05 07:58:41;;;;;;;5.47;3.20;;;;;;;;;;4909721;29;20029;-81
2023/09/05 08:01:09;;;;;;;6.25;4.35;;;;;;;;;;4926318;29;20278;-81
2023/09/05 08:03:38;;;;;;;7.90;3.50;;;;;;;;;;4922607;29;20103;-81
2023/09/05 08:06:04;;;;;;;5.63;3.00;;;;;;;;;;4907722;29;20028;-81
2023/09/05 08:08:29;;;;;;;4.43;2.80;;;;;;;;;;4923422;29;20032;-80
2023/09/05 08:10:54;;;;;;;3.90;2.08;;;;;;;;;;4923524;29;20028;-81
2023/09/05 08:13:20;;;;;;;3.47;2.40;;;;;;;;;;4907620;29;20037;-81
2023/09/05 08:15:45;;;;;;;4.90;2.77;;;;;;;;;;4923226;29;20304;-81
2023/09/05 08:18:11;;;;;;;4.32;2.58;;;;;;;;;;4923019;29;20277;-81
2023/09/05 08:20:37;;;;;;;5.10;2.75;;;;;;;;;;4924621;29;20115;-81
2023/09/05 08:23:03;;;;;;;5.60;3.50;;;;;;;;;;4911398;29;20035;-80
2023/09/05 08:25:29;;;;;;;6.90;3.58;;;;;;;;;;4911811;29;20040;-80
2023/09/05 08:27:54;;;;;;;4.35;2.97;;;;;;;;;;4924441;29;20032;-81
2023/09/05 08:30:21;;;;;;;6.10;3.33;;;;;;;;;;4925069;29;20033;-81
2023/09/05 08:32:46;;;;;;;4.85;2.90;;;;;;;;;;4922327;29;20304;-81
2023/09/05 08:35:12;;;;;;;6.72;4.57;;;;;;;;;;4924595;29;20036;-81
2023/09/05 08:37:37;;;;;;;6.53;2.85;;;;;;;;;;4910255;29;20028;-81
2023/09/05 08:40:03;;;;;;;8.77;3.87;;;;;;;;;;4892108;29;20064;-81
2023/09/05 08:42:32;;;;;;;9.23;4.22;;;;;;;;;;4910574;29;20276;-81
2023/09/05 08:45:00;;;;;;;8.32;4.13;;;;;;;;;;4907694;29;20040;-80
2023/09/05 08:47:26;;;;;;;5.03;2.03;;;;;;;;;;4911395;29;20043;-80
2023/09/05 08:49:52;;;;;;;5.55;2.70;;;;;;;;;;4911085;29;20036;-81
2023/09/05 08:52:18;;;;;;;5.05;2.33;;;;;;;;;;4910366;29;20039;-80
2023/09/05 08:54:44;;;;;;;4.57;3.00;;;;;;;;;;4909348;29;20041;-80
2023/09/05 08:57:11;;;;;;;4.75;2.72;;;;;;;;;;4908207;29;20036;-79
2023/09/05 08:59:37;;;;;;;5.45;1.88;;;;;;;;;;4908815;29;20054;-81
2023/09/05 09:02:02;;;;;;;3.70;2.00;;;;;;;;;;4911807;29;20045;-81
2023/09/05 09:04:28;;;;;;;7.00;3.20;;;;;;;;;;4908694;29;20042;-81
2023/09/05 09:06:54;;;;;;;3.58;2.10;;;;;;;;;;4908450;29;20037;-81
2023/09/05 09:09:35;;;;;;;4.75;2.67;;;;;;;;;;4909513;29;20484;-81
2023/09/05 09:12:00;;;;;;;4.60;2.27;;;;;;;;;;4913944;29;20058;-81
2023/09/05 09:14:26;;;;;;;4.85;2.55;;;;;;;;;;4913978;29;20036;-81
2023/09/05 09:16:51;;;;;;;4.20;2.30;;;;;;;;;;4909997;29;20045;-81
2023/09/05 09:19:16;;;;;;;4.50;2.97;;;;;;;;;;4915143;29;20751;-81
2023/09/05 09:21:41;;;;;;;4.63;2.30;;;;;;;;;;4911124;29;20040;-79
2023/09/05 09:24:08;;;;;;;4.30;2.20;;;;;;;;;;4900064;29;20075;-81
2023/09/05 09:26:33;;;;;;;4.40;2.50;;;;;;;;;;4914569;29;20046;-80
2023/09/05 09:29:00;;;;;;;3.97;2.10;;;;;;;;;;4912185;29;20471;-81
2023/09/05 09:31:29;;;;;;;4.85;2.17;;;;;;;;;;4913435;29;20100;-81
2023/09/05 09:33:58;;;;;;;5.50;2.30;;;;;;;;;;4913817;29;20044;-81
2023/09/05 09:36:31;;;;;;;4.18;2.05;;;;;;;;;;4912806;29;20063;-81
2023/09/05 09:38:56;;;;;;;3.17;1.90;;;;;;;;;;4914598;29;20042;-81
2023/09/05 09:41:22;;;;;;;4.63;2.80;;;;;;;;;;4910148;29;20040;-80
2023/09/05 09:43:53;;;;;;;5.50;2.88;;;;;;;;;;4913997;29;20119;-81
2023/09/05 09:46:18;;;;;;;3.00;1.50;;;;;;;;;;4918103;29;20032;-81
2023/09/05 09:48:44;;;;;;;3.67;2.10;;;;;;;;;;4910267;29;20072;-81
2023/09/05 09:51:09;;;;;;;4.13;1.92;;;;;;;;;;4916664;29;20121;-81
2023/09/05 09:53:39;;;;;;;3.07;1.40;;;;;;;;;;4914361;29;20024;-80
2023/09/05 09:56:08;;;;;;;4.63;2.30;;;;;;;;;;4909506;29;20288;-80
2023/09/05 09:58:34;;;;;;;6.30;2.65;;;;;;;;;;4913568;29;20028;-81
2023/09/05 10:01:01;;;;;;;3.35;2.08;;;;;;;;;;4914404;29;20037;-81
2023/09/05 10:03:26;;;;;;;3.85;2.30;;;;;;;;;;4911380;29;20403;-80
2023/09/05 10:05:52;;;;;;;3.28;1.40;;;;;;;;;;4912841;29;20124;-81
2023/09/05 10:08:18;;;;;;;3.97;1.60;;;;;;;;;;4911475;29;20040;-81
2023/09/05 10:10:45;;;;;;;3.70;1.85;;;;;;;;;;4914084;29;20120;-81
2023/09/05 10:13:10;;;;;;;3.80;1.90;;;;;;;;;;4909958;29;20044;-80
2023/09/05 10:15:36;;;;;;;5.65;2.78;;;;;;;;;;4914620;29;20033;-81
2023/09/05 10:18:01;;;;;;;2.80;1.70;;;;;;;;;;4912545;29;20512;-81
2023/09/05 10:20:27;;;;;;;5.13;1.90;;;;;;;;;;4911266;29;20044;-81
2023/09/05 10:22:55;;;;;;;4.28;1.70;;;;;;;;;;4914228;29;20029;-81
2023/09/05 10:25:20;;;;;;;5.70;3.60;;;;;;;;;;4912806;29;20123;-80
2023/09/05 10:27:46;;;;;;;5.65;3.60;;;;;;;;;;4914573;29;20060;-81
2023/09/05 10:30:11;;;;;;;4.63;2.50;;;;;;;;;;4912870;29;20028;-81
2023/09/05 10:32:37;;;;;;;2.50;1.40;;;;;;;;;;4909442;29;20289;-80
2023/09/05 10:35:02;;;;;;;2.95;1.52;;;;;;;;;;4917612;29;20091;-81
2023/09/05 10:37:27;;;;;;;3.70;1.63;;;;;;;;;;4912356;29;20071;-81
2023/09/05 10:39:57;;;;;;;2.58;1.35;;;;;;;;;;4912448;29;20036;-79
2023/09/05 10:42:29;;;;;;;4.55;2.38;;;;;;;;;;4910811;29;20029;-80
2023/09/05 10:44:55;;;;;;;3.22;1.83;;;;;;;;;;4910854;29;20131;-79
2023/09/05 10:47:24;;;;;;;3.25;1.90;;;;;;;;;;4912287;29;20490;-81
2023/09/05 10:49:56;;;;;;;3.65;2.10;;;;;;;;;;4908826;29;20032;-81
2023/09/05 10:52:21;;;;;;;3.30;1.65;;;;;;;;;;4911651;29;20433;-81
2023/09/05 10:54:47;;;;;;;4.85;1.80;;;;;;;;;;4893517;29;20032;-81
2023/09/05 10:57:31;;;;;;;4.00;2.15;;;;;;;;;;4912355;29;20047;-81
2023/09/05 10:59:57;;;;;;;5.63;2.63;;;;;;;;;;4917349;29;20036;-79
2023/09/05 11:02:25;;;;;;;4.25;2.20;;;;;;;;;;4910168;29;20036;-81
2023/09/05 11:04:53;;;;;;;2.33;1.20;;;;;;;;;;4913118;29;20075;-81
2023/09/05 11:07:21;;;;;;;4.75;2.58;;;;;;;;;;4909767;29;20052;-81
2023/09/05 11:09:49;;;;;;;3.88;1.95;;;;;;;;;;4911820;29;20032;-81
2023/09/05 11:15:45;;;;;;;4.25;1.83;;;;;;;;;;4908051;29;20111;-81
2023/09/05 11:18:12;;;;;;;5.35;2.08;;;;;;;;;;4911699;29;20037;-80
2023/09/05 11:20:40;;;;;;;4.07;1.60;;;;;;;;;;4927903;29;20054;-81
2023/09/05 11:23:11;;;;;;;2.97;1.83;;;;;;;;;;4924456;29;20115;-81
2023/09/05 11:25:51;;;;;;;2.50;1.20;;;;;;;;;;4921001;29;20043;-81
2023/09/05 11:28:16;;;;;;;2.28;1.10;;;;;;;;;;4917444;29;20508;-81
2023/09/05 11:30:43;;;;;;;3.38;1.70;;;;;;;;;;4916465;29;20148;-81
2023/09/05 11:33:09;;;;;;;2.85;1.70;;;;;;;;;;4917018;29;20055;-81
2023/09/05 11:35:35;;;;;;;2.67;1.30;;;;;;;;;;4926955;29;20023;-81
2023/09/05 11:38:03;;;;;;;4.03;1.30;;;;;;;;;;4920076;29;20116;-81
2023/09/05 11:40:29;;;;;;;3.00;1.33;;;;;;;;;;4916128;29;20059;-81
2023/09/05 11:43:22;;;;;;;2.92;1.60;;;;;;;;;;4915397;29;20028;-81
2023/09/05 11:45:50;;;;;;;3.13;1.70;;;;;;;;;;4915278;29;20051;-81
2023/09/05 11:48:16;;;;;;;3.38;1.55;;;;;;;;;;4920555;29;20045;-81
2023/09/05 11:50:43;;;;;;;4.93;1.42;;;;;;;;;;4925082;29;20400;-81
2023/09/05 11:53:10;;;;;;;3.20;1.52;;;;;;;;;;4919170;29;20111;-81
2023/09/05 11:55:36;;;;;;;3.17;1.55;;;;;;;;;;4918473;29;20032;-81
2023/09/05 11:58:02;;;;;;;3.50;1.13;;;;;;;;;;4912130;29;20028;-81
2023/09/05 12:00:27;;;;;;;3.17;1.60;;;;;;;;;;4914823;29;20047;-81
2023/09/05 12:02:53;;;;;;;4.80;2.97;;;;;;;;;;4924478;29;20024;-81
2023/09/05 12:05:19;;;;;;;4.53;1.92;;;;;;;;;;4924476;29;20572;-81
2023/09/05 12:07:51;;;;;;;4.40;2.67;;;;;;;;;;4907421;29;20036;-81
2023/09/05 12:10:16;;;;;;;3.70;2.30;;;;;;;;;;4915038;29;20385;-81
2023/09/05 12:12:55;;;;;;;3.53;2.17;;;;;;;;;;4915128;29;20024;-80
2023/09/05 12:15:33;;;;;;;3.90;2.60;;;;;;;;;;4921633;29;20037;-81
2023/09/05 12:17:59;;;;;;;4.47;1.85;;;;;;;;;;4920366;29;20645;-81
2023/09/05 12:20:25;;;;;;;4.97;2.60;;;;;;;;;;4922476;29;20071;-80
2023/09/05 12:22:50;;;;;;;6.43;2.35;;;;;;;;;;4915131;29;20024;-81
2023/09/05 12:25:15;;;;;;;8.53;3.33;;;;;;;;;;4914710;29;20501;-81
2023/09/05 12:27:44;;;;;;;5.82;2.25;;;;;;;;;;4910843;29;20039;-81
2023/09/05 12:30:27;;;;;;;5.95;2.72;;;;;;;;;;4917431;29;20043;-82
2023/09/05 12:33:10;;;;;;;3.30;1.50;;;;;;;;;;4915560;29;20037;-80
2023/09/05 12:35:36;;;;;;;3.03;1.38;;;;;;;;;;4904987;29;20058;-81
2023/09/05 12:38:02;;;;;;;3.33;2.00;;;;;;;;;;4915978;29;20242;-81
2023/09/05 12:40:27;;;;;;;4.55;2.28;;;;;;;;;;4912898;29;20079;-80
2023/09/05 12:42:53;;;;;;;3.42;1.42;;;;;;;;;;4912193;29;20032;-81
2023/09/05 12:45:19;;;;;;;3.53;1.65;;;;;;;;;;4919157;29;20044;-81
2023/09/05 12:47:49;;;;;;;4.47;1.70;;;;;;;;;;4903579;29;20385;-81
2023/09/05 12:50:15;;;;;;;2.45;1.63;;;;;;;;;;4920963;29;20072;-81
2023/09/05 12:52:44;;;;;;;3.33;1.77;;;;;;;;;;4913052;29;20028;-80
2023/09/05 12:55:10;;;;;;;4.20;1.80;;;;;;;;;;4909177;29;20032;-81
2023/09/05 12:57:37;;;;;;;5.43;2.25;;;;;;;;;;4924600;29;20036;-81
2023/09/05 13:00:02;;;;;;;6.00;2.30;;;;;;;;;;4922138;29;20040;-82
2023/09/05 13:02:27;;;;;;;3.05;1.60;;;;;;;;;;4923294;29;20047;-81
2023/09/05 13:04:53;;;;;;;3.50;2.20;;;;;;;;;;4906934;29;20044;-81
2023/09/05 13:07:18;;;;;;;6.00;2.53;;;;;;;;;;4917504;29;20025;-81
2023/09/05 13:09:43;;;;;;;4.83;2.50;;;;;;;;;;4913693;29;20032;-81
2023/09/05 13:12:08;;;;;;;2.57;1.30;;;;;;;;;;4925095;29;20039;-81
2023/09/05 13:14:35;;;;;;;4.20;1.90;;;;;;;;;;4929286;29;20051;-81
2023/09/05 13:17:00;;;;;;;2.90;1.70;;;;;;;;;;4920613;29;20032;-81
2023/09/05 13:19:25;;;;;;;3.33;1.80;;;;;;;;;;4920624;29;20154;-81
2023/09/05 13:21:52;;;;;;;3.87;2.10;;;;;;;;;;4914442;29;20024;-80
2023/09/05 13:24:17;;;;;;;4.30;1.80;;;;;;;;;;4914340;29;20040;-81
2023/09/05 13:26:42;;;;;;;4.93;2.47;;;;;;;;;;4929048;29;20046;-82
2023/09/05 13:29:07;;;;;;;3.23;1.70;;;;;;;;;;4924466;29;20288;-81
2023/09/05 13:31:33;;;;;;;5.87;1.93;;;;;;;;;;4923217;29;20066;-80
2023/09/05 13:33:58;;;;;;;4.13;1.40;;;;;;;;;;4917871;29;20399;-82
2023/09/05 13:36:23;;;;;;;4.00;1.67;;;;;;;;;;4921597;29;20284;-81
2023/09/05 13:38:48;;;;;;;3.70;2.30;;;;;;;;;;4925740;29;20334;-82
2023/09/05 13:41:15;;;;;;;4.33;2.23;;;;;;;;;;4926650;29;20036;-81
2023/09/05 13:43:40;;;;;;;3.03;1.63;;;;;;;;;;4926810;29;20079;-82
2023/09/05 13:46:05;;;;;;;4.22;1.95;;;;;;;;;;4903935;29;20080;-82
2023/09/05 13:48:31;;;;;;;4.27;1.60;;;;;;;;;;4915509;29;20035;-82
2023/09/05 13:50:56;;;;;;;7.53;2.38;;;;;;;;;;4913487;29;20143;-82
2023/09/05 13:53:21;;;;;;;7.87;2.80;;;;;;;;;;4929347;29;20033;-81
2023/09/05 13:55:47;;;;;;;8.32;3.88;;;;;;;;;;4922990;29;20363;-82
2023/09/05 13:58:12;;;;;;;4.35;2.08;;;;;;;;;;4918992;29;20036;-82
2023/09/05 14:00:37;;;;;;;3.70;1.73;;;;;;;;;;4924252;29;20042;-81
2023/09/05 14:03:02;;;;;;;2.97;1.80;;;;;;;;;;4913937;29;20039;-82
2023/09/05 14:05:27;;;;;;;3.37;1.80;;;;;;;;;;4917897;29;20032;-81
2023/09/05 14:07:53;;;;;;;4.50;2.20;;;;;;;;;;4920396;29;20842;-82
2023/09/05 14:10:18;;;;;;;5.37;2.40;;;;;;;;;;4925385;29;20032;-81
2023/09/05 14:12:43;;;;;;;3.70;2.10;;;;;;;;;;4924127;29;20076;-80
2023/09/05 14:15:09;;;;;;;2.90;1.63;;;;;;;;;;4918817;29;20280;-82
2023/09/05 14:17:34;;;;;;;3.35;1.38;;;;;;;;;;4922297;29;20032;-82
2023/09/05 14:19:59;;;;;;;3.67;1.57;;;;;;;;;;4917971;29;20062;-81
2023/09/05 14:22:25;;;;;;;2.83;1.70;;;;;;;;;;4926811;29;20291;-82
2023/09/05 14:24:50;;;;;;;4.43;2.50;;;;;;;;;;4925502;29;20411;-82
2023/09/05 14:27:15;;;;;;;5.60;2.50;;;;;;;;;;4922005;29;20405;-82
2023/09/05 14:29:40;;;;;;;3.47;2.13;;;;;;;;;;4917961;29;20032;-82
2023/09/05 14:32:06;;;;;;;5.90;1.52;;;;;;;;;;4911351;29;20035;-79
2023/09/05 14:34:31;;;;;;;4.13;1.83;;;;;;;;;;4926968;29;20027;-82
2023/09/05 14:36:56;;;;;;;4.53;2.40;;;;;;;;;;4916460;29;20039;-82
2023/09/05 14:39:21;;;;;;;5.97;3.00;;;;;;;;;;4932756;29;20029;-82
2023/09/05 14:41:46;;;;;;;3.30;1.97;;;;;;;;;;4934169;29;20032;-82
2023/09/05 14:44:12;;;;;;;2.50;1.30;;;;;;;;;;4928528;29;20036;-82
2023/09/05 14:46:37;;;;;;;3.03;1.88;;;;;;;;;;4912180;29;20036;-82